• Join FlightAware (Why Join?)
  • Login
  • US Flag 
06:23PM EDT


 

Airport Tracker/Info


-or-


 

Live Flight TrackerFlight Track Log ✈ AAL1431 ✈ 15-Jul-2013 ✈ KDFW - KSEA

Flight Track Log - Related Links

Times and Time Zones

All times are in EDT time to prevent confusion due to time zone crossing. See the AAL1431 flight status page for this flight to view local times or setup timezone preferences in your user account.

Time Position Orientation Groundspeed Altitude Reporting Facility
EDT Latitude Longitude Course Direction KTS MPH feet Rate Location/Type
11:58PM 32.8490 -97.0550 190° South 200 230 2,400  Level FlightAware
11:59PM 32.8150 -97.0660 195° South 243 280 3,200 2,160 Climbing FlightAware
11:59PM 32.7950 -97.0740 199° South 242 278 4,200 3,000 Climbing FlightAware
11:59PM 32.7810 -97.0840 211° Southwest 252 290 4,800 2,760 Climbing FlightAware
12:00AM 32.7710 -97.1020 237° Southwest 260 299 5,600 3,000 Climbing FlightAware
12:00AM 32.7680 -97.1170 257° West 270 311 6,100 2,520 Climbing FlightAware
12:00AM 32.7690 -97.1860 271° West 289 333 8,000 2,460 Climbing FlightAware
12:01AM 32.7770 -97.2280 283° West 304 350 9,100 2,460 Climbing FlightAware
12:01AM 32.7820 -97.2390 298° West 309 356 9,400 2,220 Climbing FlightAware
12:01AM 32.7970 -97.2620 308° West 321 369 10,000 1,560 Climbing FlightAware
12:02AM 32.8410 -97.3140 315° West 357 411 10,900 2,160 Climbing FlightAware
12:03AM 32.8920 -97.3770 314° West 358 412 13,000 2,700 Climbing FlightAware
12:03AM 32.9260 -97.4460 300° West 364 419 14,700 2,520 Climbing FlightAware
12:04AM 32.9620 -97.5250 299° West 372 428 16,600 1,560 Climbing FlightAware
12:05AM 32.9930 -97.5920 299° West 375 432 16,900 840 Climbing FlightAware
12:05AM 33.0310 -97.6760 298° West 378 435 17,800 1,380 Climbing FlightAware
12:06AM 33.0550 -97.7300 298° West 389 448 18,700 1,680 Climbing FlightAware
12:07AM 33.0960 -97.8220 298° West 408 470 20,000 1,920 Climbing FlightAware
12:07AM 33.1340 -97.9080 298° West 411 473 21,600 2,100 Climbing FlightAware
12:08AM 33.1640 -97.9710 300° West 411 473 22,700 1,680 Climbing FlightAware
12:09AM 33.2190 -98.0440 312° West 431 496 23,700 720 Climbing FlightAware
12:09AM 33.2630 -98.1000 313° West 431 496 23,700  Level FlightAware
12:11AM 33.3460 -98.2070 313° West 431 496 23,700 1,560 Level FlightAware
12:11AM 33.4310 -98.3080 315° West 460 529 26,900 1,920 Climbing FlightAware
12:12AM 33.4910 -98.3830 314° West 460 529 26,900  Level FlightAware
12:13AM 33.5360 -98.4390 314° West 460 529 26,900 2,460 Level FlightAware
12:13AM 33.6380 -98.5680 314° West 482 555 30,100 2,100 Climbing FlightAware
12:14AM 33.7030 -98.6510 313° West 482 555 30,100  Level FlightAware
12:15AM 33.7610 -98.7260 313° West 482 555 30,100  Level FlightAware
12:16AM 33.8520 -98.8430 313° West 482 555 30,100  Level FlightAware
12:17AM 33.9140 -98.9230 313° West 482 555 30,100 3,000 Level FlightAware
12:18AM 34.0400 -99.0750 315° West 497 572 34,700 3,240 Climbing FlightAware
12:18AM 34.1100 -99.1640 314° West 496 571 35,100 240 Climbing FlightAware
12:19AM 34.1580 -99.2260 313° West 496 571 35,100  Level FlightAware
12:20AM 34.2220 -99.3090 313° West 496 571 35,100  Level FlightAware
12:20AM 34.2700 -99.3710 313° West 496 571 35,100  Level FlightAware
12:21AM 34.3190 -99.4350 313° West 496 571 35,100  Level FlightAware
12:22AM 34.3830 -99.5180 313° West 496 571 35,100  Level FlightAware
12:23AM 34.4310 -99.5800 313° West 496 571 35,100  Level FlightAware
12:23AM 34.4940 -99.6630 313° West 496 571 35,100 480 Level FlightAware
12:24AM 34.6260 -99.8310 314° West 463 533 36,000 540 Climbing FlightAware
12:25AM 34.6700 -99.8900 312° West 463 533 36,000  Level FlightAware
12:25AM 34.7140 -99.9490 312° West 463 533 36,000  Level FlightAware
12:26AM 34.8150 -100.0740 315° West 466 536 36,000  Level FlightAware
12:27AM 34.8880 -100.1700 313° West 465 535 36,000  Level FlightAware
12:28AM 34.9320 -100.2300 312° West 465 535 36,000  Level FlightAware
12:29AM 34.9900 -100.3100 312° West 465 535 36,000  Level FlightAware
12:29AM 35.0340 -100.3690 312° West 465 535 36,000  Level FlightAware
12:30AM 35.1090 -100.4710 312° West 465 535 36,000  Level FlightAware
12:31AM 35.1530 -100.5310 312° West 465 535 36,000  Level FlightAware
12:32AM 35.2120 -100.6100 312° West 465 535 36,000  Level FlightAware
12:32AM 35.2530 -100.6670 311° West 465 535 36,000  Level FlightAware
12:33AM 35.3120 -100.7470 312° West 465 535 36,000  Level FlightAware
12:34AM 35.3570 -100.8090 312° West 465 535 36,000  Level FlightAware
12:34AM 35.4170 -100.8900 312° West 465 535 36,000  Level FlightAware
12:35AM 35.4630 -100.9520 312° West 465 535 36,000  Level FlightAware
12:36AM 35.5210 -101.0320 312° West 465 535 36,000  Level FlightAware
12:36AM 35.5650 -101.0920 312° West 465 535 36,000  Level FlightAware
12:38AM 35.7369 -101.4358 312° West 453 521 36,000  Level Albuquerque Center
12:39AM 35.8194 -101.5483 312° West 449 517 36,000  Level Albuquerque Center
12:40AM 35.9017 -101.6608 312° West 447 514 36,000  Level Albuquerque Center
12:41AM 35.9847 -101.7725 313° West 445 512 36,000  Level Albuquerque Center
12:42AM 36.0653 -101.8853 311° West 442 509 36,000  Level Albuquerque Center
12:43AM 36.1647 -102.0203 312° West 443 510 36,000  Level Albuquerque Center
12:44AM 36.2458 -102.1311 312° West 438 504 36,000  Level Albuquerque Center
12:45AM 36.3264 -102.2436 312° West 438 504 36,000  Level Albuquerque Center
12:46AM 36.4083 -102.3556 312° West 438 504 36,000  Level Albuquerque Center
12:47AM 36.4897 -102.4689 312° West 440 506 36,000  Level Albuquerque Center
12:53AM 36.9655 -103.1380 312° West 36,000  Level FlightAware ADS-B
12:53AM 36.9708 -103.1450 313° West 433 498 36,000  Level FlightAware ADS-B
12:53AM 37.0126 -103.2050 311° West 434 499 36,000  Level FlightAware ADS-B
12:54AM 37.0558 -103.2660 312° West 434 499 36,000  Level FlightAware ADS-B
12:55AM 37.1612 -103.4170 311° West 429 494 36,000  Level FlightAware ADS-B
12:56AM 37.2016 -103.4750 311° West 427 491 36,000  Level FlightAware ADS-B
12:57AM 37.2858 -103.5950 311° West 427 491 36,000  Level FlightAware ADS-B
12:57AM 37.3255 -103.6530 311° West 422 486 36,000  Level FlightAware ADS-B
12:58AM 37.3649 -103.7090 312° West 422 486 36,000  Level FlightAware ADS-B
12:58AM 37.4106 -103.7760 311° West 422 486 36,000 120 Level FlightAware ADS-B
12:59AM 37.4522 -103.8360 311° West 425 489 36,200 840 Climbing FlightAware ADS-B
12:59AM 37.4916 -103.8940 311° West 419 482 36,900 1,260 Climbing FlightAware ADS-B
01:00AM 37.5303 -103.9500 311° West 415 478 37,500 1,080 Climbing FlightAware ADS-B
01:00AM 37.5679 -104.0050 311° West 409 471 38,000 480 Climbing FlightAware ADS-B
01:01AM 37.6065 -104.0610 311° West 408 470 38,000  Level FlightAware ADS-B
01:01AM 37.6438 -104.1150 311° West 407 468 38,000  Level FlightAware ADS-B
01:02AM 37.6817 -104.1700 311° West 406 467 38,000  Level FlightAware ADS-B
01:03AM 37.7298 -104.2410 311° West 406 467 38,000  Level FlightAware ADS-B
01:03AM 37.7691 -104.2990 311° West 406 467 38,000  Level FlightAware ADS-B
01:04AM 37.8124 -104.3620 311° West 406 467 38,000  Level FlightAware ADS-B
01:04AM 37.8534 -104.4230 310° West 405 466 38,000  Level FlightAware ADS-B
01:05AM 37.8904 -104.4780 310° West 409 471 38,000  Level FlightAware ADS-B
01:06AM 37.9465 -104.5610 311° West 411 473 38,000  Level FlightAware ADS-B
01:06AM 37.9978 -104.6370 311° West 411 473 38,000  Level FlightAware ADS-B
01:07AM 38.0507 -104.7160 310° West 411 473 38,000  Level FlightAware ADS-B
01:08AM 38.0995 -104.7880 311° West 411 473 38,000  Level FlightAware ADS-B
01:08AM 38.1369 -104.8440 310° West 413 475 38,000  Level FlightAware ADS-B
01:09AM 38.1741 -104.9000 310° West 416 479 38,000  Level FlightAware ADS-B
01:09AM 38.2118 -104.9560 311° West 417 480 38,000  Level FlightAware ADS-B
01:10AM 38.2502 -105.0140 310° West 419 482 38,000  Level FlightAware ADS-B
01:10AM 38.2883 -105.0710 310° West 419 482 38,000  Level FlightAware ADS-B
01:11AM 38.3259 -105.1280 310° West 419 482 38,000  Level FlightAware ADS-B
01:11AM 38.3638 -105.1850 310° West 419 482 38,000  Level FlightAware ADS-B
01:12AM 38.4023 -105.2440 310° West 419 482 38,000  Level FlightAware ADS-B
01:12AM 38.4407 -105.3020 310° West 420 483 38,000  Level FlightAware ADS-B
01:13AM 38.4784 -105.3590 310° West 420 483 38,000  Level FlightAware ADS-B
01:13AM 38.5159 -105.4160 310° West 422 486 38,000  Level FlightAware ADS-B
01:14AM 38.5535 -105.4740 310° West 424 488 38,000  Level FlightAware ADS-B
01:14AM 38.5917 -105.5320 310° West 425 489 38,000  Level FlightAware ADS-B
01:15AM 38.6297 -105.5900 310° West 426 490 38,000  Level FlightAware ADS-B
01:15AM 38.6674 -105.6480 310° West 428 493 38,000  Level FlightAware ADS-B
01:16AM 38.7054 -105.7060 310° West 428 493 38,000  Level FlightAware ADS-B
01:16AM 38.7448 -105.7670 310° West 428 493 38,000  Level FlightAware ADS-B
01:17AM 38.7830 -105.8260 310° West 427 491 38,000  Level FlightAware ADS-B
01:17AM 38.8209 -105.8840 310° West 428 493 38,000  Level FlightAware ADS-B
01:18AM 38.8589 -105.9430 310° West 428 493 38,000  Level FlightAware ADS-B
01:18AM 38.8970 -106.0020 310° West 426 490 38,000  Level FlightAware ADS-B
01:19AM 38.9356 -106.0620 310° West 428 493 38,000  Level FlightAware ADS-B
01:19AM 38.9755 -106.1240 310° West 428 493 38,000  Level FlightAware ADS-B
01:20AM 39.0132 -106.1830 309° West 428 493 38,000  Level FlightAware ADS-B
01:20AM 39.0525 -106.2440 310° West 428 493 38,000  Level FlightAware ADS-B
01:21AM 39.0903 -106.3030 310° West 428 493 38,000  Level FlightAware ADS-B
01:21AM 39.1279 -106.3620 309° West 428 493 38,000  Level FlightAware ADS-B
01:22AM 39.1657 -106.4210 310° West 428 493 38,000  Level FlightAware ADS-B
01:22AM 39.2035 -106.4810 309° West 427 491 38,000  Level FlightAware ADS-B
01:23AM 39.2410 -106.5400 309° West 428 493 38,000  Level FlightAware ADS-B
01:23AM 39.2799 -106.6010 309° West 428 493 38,000  Level FlightAware ADS-B
01:24AM 39.3175 -106.6610 309° West 427 491 38,000  Level FlightAware ADS-B
01:24AM 39.3549 -106.7200 309° West 427 491 38,000  Level FlightAware ADS-B
01:25AM 39.3925 -106.7800 309° West 427 491 38,000  Level FlightAware ADS-B
01:25AM 39.4315 -106.8410 310° West 426 490 38,000  Level FlightAware ADS-B
01:26AM 39.4688 -106.9010 309° West 426 490 38,000  Level FlightAware ADS-B
01:26AM 39.5060 -106.9600 309° West 426 490 38,000  Level FlightAware ADS-B
01:27AM 39.5433 -107.0200 309° West 425 489 38,000  Level FlightAware ADS-B
01:27AM 39.5805 -107.0800 309° West 425 489 38,000  Level FlightAware ADS-B
01:28AM 39.6184 -107.1410 309° West 425 489 38,000  Level FlightAware ADS-B
01:28AM 39.6588 -107.2060 309° West 425 489 38,000  Level FlightAware ADS-B
01:29AM 39.6962 -107.2660 309° West 425 489 38,000  Level FlightAware ADS-B
01:30AM 39.7340 -107.3270 309° West 425 489 38,000  Level FlightAware ADS-B
01:30AM 39.7780 -107.3980 309° West 425 489 38,000  Level FlightAware ADS-B
01:31AM 39.8157 -107.4590 309° West 425 489 38,000  Level FlightAware ADS-B
01:31AM 39.8525 -107.5190 309° West 426 490 38,000  Level FlightAware ADS-B
01:32AM 39.8904 -107.5810 309° West 426 490 38,000  Level FlightAware ADS-B
01:32AM 39.9527 -107.6830 309° West 426 490 38,000  Level FlightAware ADS-B
01:33AM 40.0170 -107.7870 309° West 427 491 38,000  Level FlightAware
01:34AM 40.0710 -107.8760 308° West 427 491 38,000  Level FlightAware
01:35AM 40.1190 -107.9570 308° West 427 491 38,000  Level FlightAware
01:35AM 40.1740 -108.0460 309° West 428 493 38,000  Level FlightAware
01:36AM 40.2220 -108.1260 308° West 428 493 38,000  Level FlightAware
01:37AM 40.2720 -108.2100 308° West 428 493 38,000  Level FlightAware
01:38AM 40.3260 -108.2980 309° West 430 495 38,000  Level FlightAware
01:38AM 40.3800 -108.3900 308° West 432 497 38,000  Level FlightAware
01:39AM 40.4290 -108.4710 308° West 433 498 38,000  Level FlightAware
01:40AM 40.4830 -108.5620 308° West 434 499 38,000  Level FlightAware
01:40AM 40.5280 -108.6380 308° West 435 501 38,000  Level FlightAware
01:41AM 40.5780 -108.7220 308° West 437 503 38,000  Level FlightAware
01:42AM 40.6290 -108.8090 308° West 439 505 38,000  Level FlightAware
01:42AM 40.6720 -108.8820 308° West 441 507 38,000  Level FlightAware
01:43AM 40.7290 -108.9790 308° West 442 509 38,000  Level FlightAware
01:44AM 40.7740 -109.0560 308° West 444 511 38,000  Level FlightAware
01:44AM 40.8270 -109.1470 308° West 444 511 38,000  Level FlightAware
01:45AM 40.8850 -109.2450 308° West 445 512 38,000  Level FlightAware
01:46AM 40.9330 -109.3280 307° West 446 513 38,000  Level FlightAware
01:46AM 40.9900 -109.4280 307° West 445 512 38,000  Level FlightAware
01:47AM 41.0350 -109.5040 308° West 443 510 38,000  Level FlightAware
01:48AM 41.0840 -109.5910 307° West 441 507 38,000  Level FlightAware
01:48AM 41.1340 -109.6770 308° West 440 506 38,000  Level FlightAware
01:49AM 41.1790 -109.7550 307° West 439 505 38,000  Level FlightAware
01:50AM 41.2330 -109.8500 307° West 438 504 38,000  Level FlightAware
01:50AM 41.2810 -109.9340 307° West 437 503 38,000  Level FlightAware
01:51AM 41.3260 -110.0130 307° West 435 501 38,000  Level FlightAware
01:52AM 41.3720 -110.0940 307° West 434 499 38,000  Level FlightAware
01:53AM 41.4420 -110.2200 307° West 432 497 38,000  Level FlightAware
01:53AM 41.4810 -110.2890 307° West 433 498 38,000  Level FlightAware
01:54AM 41.5450 -110.4030 307° West 440 506 38,000  Level FlightAware
01:55AM 41.5910 -110.4840 307° West 440 506 38,000  Level FlightAware
01:56AM 41.6520 -110.5950 306° West 439 505 38,000  Level FlightAware
01:56AM 41.6880 -110.6630 305° West 439 505 38,000  Level FlightAware
01:57AM 41.7490 -110.7750 306° West 439 505 38,000  Level FlightAware
01:58AM 41.7860 -110.8420 307° West 439 505 38,000  Level FlightAware
01:59AM 41.8720 -110.9930 307° West 430 495 38,000  Level FlightAware
01:59AM 41.9180 -111.0760 307° West 429 494 38,000  Level FlightAware
02:00AM 41.9700 -111.1710 306° West 426 490 38,000  Level FlightAware
02:01AM 42.0140 -111.2510 307° West 425 489 38,000  Level FlightAware
02:01AM 42.0600 -111.3370 306° West 424 488 38,000  Level FlightAware
02:02AM 42.1080 -111.4260 306° West 422 486 38,000  Level FlightAware
02:03AM 42.1620 -111.5250 306° West 422 486 38,000  Level FlightAware
02:04AM 42.2120 -111.6180 306° West 421 484 38,000  Level FlightAware
02:04AM 42.2570 -111.7010 306° West 421 484 38,000  Level FlightAware
02:05AM 42.2890 -111.7620 305° West 419 482 38,000  Level FlightAware
02:05AM 42.3250 -111.8290 306° West 419 482 38,000  Level FlightAware
02:06AM 42.4020 -111.9750 306° West 419 482 38,000  Level FlightAware
02:07AM 42.4530 -112.0710 306° West 423 487 38,000  Level FlightAware
02:08AM 42.5040 -112.1670 306° West 427 491 38,000  Level FlightAware
02:08AM 42.5390 -112.2320 306° West 427 491 38,000  Level FlightAware
02:09AM 42.6120 -112.3720 305° West 429 494 38,000  Level FlightAware
02:10AM 42.6470 -112.4390 305° West 429 494 38,000  Level FlightAware
02:11AM 42.7020 -112.5430 306° West 436 502 38,000  Level FlightAware
02:12AM 42.7640 -112.6620 305° West 439 505 38,000  Level FlightAware
02:12AM 42.8140 -112.7570 306° West 440 506 38,000  Level FlightAware
02:13AM 42.8640 -112.8560 305° West 435 501 38,000  Level FlightAware
02:14AM 42.9100 -112.9450 305° West 433 498 38,000  Level FlightAware
02:14AM 42.9610 -113.0440 305° West 434 499 38,000  Level FlightAware
02:15AM 43.0070 -113.1330 305° West 435 501 38,000  Level FlightAware
02:16AM 43.0570 -113.2320 305° West 436 502 38,000  Level FlightAware
02:16AM 43.1040 -113.3240 305° West 437 503 38,000  Level FlightAware
02:17AM 43.1460 -113.4070 305° West 437 503 38,000  Level FlightAware
02:18AM 43.1960 -113.5060 305° West 439 505 38,000  Level FlightAware
02:18AM 43.2420 -113.5970 305° West 439 505 38,000  Level FlightAware
02:19AM 43.2930 -113.6980 305° West 440 506 38,000  Level FlightAware
02:20AM 43.3390 -113.7910 304° West 439 505 38,000  Level FlightAware
02:21AM 43.3890 -113.8890 305° West 438 504 38,000  Level FlightAware
02:22AM 43.4470 -114.0070 304° West 438 504 38,000  Level FlightAware
02:22AM 43.4890 -114.0920 304° West 436 502 38,000  Level FlightAware
02:23AM 43.5390 -114.1920 305° West 435 501 38,000  Level FlightAware
02:23AM 43.5860 -114.2880 304° West 435 501 38,000  Level FlightAware
02:24AM 43.6260 -114.3700 304° West 435 501 38,000  Level FlightAware
02:25AM 43.6720 -114.4620 305° West 433 498 38,000  Level FlightAware
02:25AM 43.7200 -114.5610 304° West 431 496 38,000  Level FlightAware
02:26AM 43.7640 -114.6530 304° West 431 496 38,000  Level FlightAware
02:27AM 43.8130 -114.7530 304° West 429 494 38,000  Level FlightAware
02:28AM 43.8580 -114.8450 304° West 430 495 38,000  Level FlightAware
02:28AM 43.9040 -114.9430 303° West 433 498 38,000  Level FlightAware
02:29AM 43.9450 -115.0270 304° West 434 499 38,000  Level FlightAware
02:30AM 43.9900 -115.1210 304° West 435 501 38,000  Level FlightAware
02:30AM 44.0380 -115.2220 303° West 437 503 38,000  Level FlightAware
02:31AM 44.0780 -115.3060 304° West 437 503 38,000  Level FlightAware
02:31AM 44.1230 -115.4000 304° West 439 505 38,000  Level FlightAware
02:32AM 44.1680 -115.4950 303° West 439 505 38,000  Level FlightAware
02:33AM 44.2130 -115.5910 303° West 439 505 38,000  Level FlightAware
02:34AM 44.2600 -115.6930 303° West 436 502 38,000  Level FlightAware
02:34AM 44.3080 -115.7950 303° West 436 502 38,000  Level FlightAware
02:35AM 44.3540 -115.8940 303° West 434 499 38,000  Level FlightAware
02:36AM 44.4010 -115.9940 303° West 433 498 38,000  Level FlightAware
02:36AM 44.4370 -116.0700 304° West 435 501 38,000  Level FlightAware
02:37AM 44.4890 -116.1700 306° West 437 503 38,000  Level FlightAware
02:38AM 44.5380 -116.2620 307° West 437 503 38,000  Level FlightAware
02:38AM 44.5800 -116.3430 306° West 437 503 38,000  Level FlightAware
02:39AM 44.6330 -116.4450 306° West 438 504 38,000  Level FlightAware
02:40AM 44.6800 -116.5360 306° West 439 505 38,000  Level FlightAware
02:40AM 44.7270 -116.6280 306° West 439 505 38,000  Level FlightAware
02:41AM 44.7820 -116.7340 306° West 439 505 38,000  Level FlightAware
02:42AM 44.8300 -116.8260 306° West 438 504 38,000  Level FlightAware
02:42AM 44.8800 -116.9250 306° West 437 503 38,000  Level FlightAware
02:43AM 44.9250 -117.0120 306° West 437 503 38,000  Level FlightAware
02:44AM 44.9710 -117.1050 305° West 435 501 38,000  Level FlightAware
02:44AM 45.0230 -117.2040 307° West 435 501 38,000  Level FlightAware
02:45AM 45.0610 -117.2790 306° West 435 501 38,000  Level FlightAware
02:46AM 45.1130 -117.3800 306° West 434 499 38,000  Level FlightAware
02:46AM 45.1600 -117.4730 306° West 436 502 38,000  Level FlightAware
02:47AM 45.2110 -117.5740 306° West 436 502 38,000  Level FlightAware
02:48AM 45.2580 -117.6670 306° West 435 501 38,000  Level FlightAware
02:49AM 45.3100 -117.7700 306° West 435 501 38,000  Level FlightAware
02:49AM 45.3610 -117.8710 306° West 434 499 38,000  Level FlightAware
02:50AM 45.4080 -117.9650 305° West 434 499 38,000  Level FlightAware
02:51AM 45.4570 -118.0630 306° West 433 498 38,000  Level FlightAware
02:51AM 45.5070 -118.1640 305° West 432 497 38,000  Level FlightAware
02:52AM 45.5530 -118.2570 305° West 432 497 38,000  Level FlightAware
02:53AM 45.6040 -118.3600 305° West 433 498 38,000  Level FlightAware
02:53AM 45.6430 -118.4400 305° West 435 501 38,000  Level FlightAware
02:54AM 45.6910 -118.5380 305° West 435 501 38,000  Level FlightAware
02:55AM 45.7380 -118.6330 305° West 437 503 38,000  Level FlightAware
02:55AM 45.7880 -118.7370 305° West 438 504 38,000  Level FlightAware
02:56AM 45.8300 -118.8230 305° West 437 503 38,000  Level FlightAware
02:57AM 45.8760 -118.9180 305° West 437 503 38,000  Level FlightAware
02:57AM 45.9260 -119.0230 304° West 437 503 38,000  Level FlightAware
02:58AM 45.9680 -119.1100 305° West 437 503 38,000  Level FlightAware
02:59AM 46.0160 -119.2090 305° West 437 503 38,000  Level FlightAware
02:59AM 46.0640 -119.3110 304° West 436 502 38,000  Level FlightAware
03:01AM 46.1700 -119.5370 304° West 436 502 38,000  Level FlightAware
03:02AM 46.2269 -119.6540 305° West 430 495 38,000  Level FlightAware ADS-B
03:02AM 46.2607 -119.7260 304° West 430 495 38,000 -540 Level FlightAware ADS-B
03:03AM 46.2942 -119.7980 304° West 434 499 37,500 -960 Descending FlightAware ADS-B
03:03AM 46.3290 -119.8730 304° West 435 501 37,000 -960 Descending FlightAware
03:04AM 46.3800 -119.9820 304° West 432 497 36,300 -1,200 Descending FlightAware
03:05AM 46.4270 -120.0830 304° West 426 490 35,300 -2,160 Descending FlightAware
03:06AM 46.4730 -120.1820 304° West 432 497 33,300 -3,000 Descending FlightAware
03:06AM 46.5220 -120.2880 304° West 437 503 31,100 -3,000 Descending FlightAware
03:07AM 46.5407 -120.3290 304° West 432 497 30,300 -2,580 Descending FlightAware ADS-B
03:07AM 46.5748 -120.4030 304° West 433 498 29,100 -2,400 Descending FlightAware ADS-B
03:08AM 46.6140 -120.4880 304° West 426 490 27,700 -2,340 Descending FlightAware ADS-B
03:08AM 46.6504 -120.5690 303° West 417 480 26,400 -2,220 Descending FlightAware ADS-B
03:09AM 46.6823 -120.6390 304° West 409 471 25,300 -2,220 Descending FlightAware ADS-B
03:09AM 46.7209 -120.7240 304° West 402 463 23,900 -2,280 Descending FlightAware ADS-B
03:10AM 46.7647 -120.8210 303° West 392 451 22,300 -2,220 Descending FlightAware ADS-B
03:11AM 46.7944 -120.8870 303° West 385 443 21,200 -2,100 Descending FlightAware ADS-B
03:11AM 46.8237 -120.9520 303° West 378 435 20,200 -2,100 Descending FlightAware ADS-B
03:12AM 46.8525 -121.0170 303° West 374 430 19,100 -2,220 Descending FlightAware ADS-B
03:12AM 46.8810 -121.0800 304° West 368 423 18,000 -2,100 Descending FlightAware ADS-B
03:13AM 46.9092 -121.1430 303° West 362 417 17,000 -2,100 Descending FlightAware ADS-B
03:13AM 46.9365 -121.2040 303° West 358 412 15,900 -2,100 Descending FlightAware ADS-B
03:14AM 46.9637 -121.2650 303° West 354 407 14,900 -1,980 Descending FlightAware ADS-B
03:14AM 46.9904 -121.3260 303° West 350 403 13,900 -2,040 Descending FlightAware ADS-B
03:15AM 47.0166 -121.3850 303° West 345 397 12,900 -1,620 Descending FlightAware ADS-B
03:15AM 47.0421 -121.4430 303° West 331 381 12,300 -840 Descending FlightAware ADS-B
03:16AM 47.0664 -121.4980 303° West 312 359 12,100 -300 Descending FlightAware ADS-B
03:16AM 47.0901 -121.5510 303° West 304 350 12,000 -120 Descending FlightAware ADS-B
03:17AM 47.1079 -121.5890 305° West 299 344 12,000 -240 Level FlightAware ADS-B
03:17AM 47.1126 -121.6000 302° West 298 343 11,900 -960 Descending FlightAware ADS-B
03:17AM 47.1164 -121.6120 295° West 298 343 11,800 -1,500 Descending FlightAware ADS-B
03:17AM 47.1306 -121.6690 290° West 296 341 11,000 -1,620 Descending FlightAware ADS-B
03:18AM 47.1448 -121.7250 290° West 293 337 10,200 -1,500 Descending FlightAware ADS-B
03:18AM 47.1517 -121.7530 290° West 290 334 9,900 -1,440 Descending FlightAware ADS-B
03:18AM 47.1585 -121.7810 290° West 289 333 9,500 -1,380 Descending FlightAware ADS-B
03:19AM 47.1653 -121.8090 290° West 285 328 9,200 -1,500 Descending FlightAware ADS-B
03:19AM 47.1714 -121.8340 290° West 283 326 8,800 -1,500 Descending FlightAware ADS-B
03:19AM 47.1781 -121.8620 289° West 282 325 8,500 -1,380 Descending FlightAware ADS-B
03:19AM 47.1848 -121.8900 289° West 283 326 8,100 -1,800 Descending FlightAware ADS-B
03:19AM 47.1913 -121.9170 290° West 283 326 7,600 -1,800 Descending FlightAware ADS-B
03:20AM 47.1978 -121.9460 288° West 285 328 7,200 -1,560 Descending FlightAware ADS-B
03:20AM 47.2043 -121.9740 289° West 286 329 6,800 -1,560 Descending FlightAware ADS-B
03:20AM 47.2107 -122.0010 289° West 286 329 6,400 -1,620 Descending FlightAware ADS-B
03:21AM 47.2172 -122.0300 288° West 286 329 6,000 -1,380 Descending FlightAware ADS-B
03:21AM 47.2237 -122.0580 289° West 283 326 5,700 -1,200 Descending FlightAware ADS-B
03:21AM 47.2300 -122.0850 289° West 280 322 5,400 -1,200 Descending FlightAware ADS-B
03:21AM 47.2365 -122.1130 289° West 279 321 5,100 -780 Descending FlightAware ADS-B
03:22AM 47.2428 -122.1400 289° West 272 313 5,000 -240 Descending FlightAware ADS-B
03:22AM 47.2488 -122.1660 289° West 257 296 5,000  Level FlightAware ADS-B
03:22AM 47.2544 -122.1900 289° West 247 284 5,000  Level FlightAware ADS-B
03:22AM 47.2600 -122.2140 289° West 246 283 5,000 -420 Level FlightAware ADS-B
03:23AM 47.2657 -122.2380 289° West 236 272 4,800 -900 Descending FlightAware ADS-B
03:23AM 47.2698 -122.2550 290° West 232 267 4,600 -1,140 Descending FlightAware ADS-B
03:23AM 47.2719 -122.2620 294° West 230 265 4,500 -2,040 Descending FlightAware ADS-B
03:23AM 47.2741 -122.2680 298° West 228 262 4,300 -2,580 Descending FlightAware ADS-B
03:23AM 47.2757 -122.2720 301° West 229 264 4,200 -1,740 Descending FlightAware ADS-B
03:23AM 47.2776 -122.2770 299° West 228 262 4,100 -780 Descending FlightAware ADS-B
03:23AM 47.2799 -122.2810 310° West 224 258 4,100 -900 Level FlightAware ADS-B
03:23AM 47.2824 -122.2860 306° West 221 254 4,000 -1,740 Descending FlightAware ADS-B
03:23AM 47.2846 -122.2890 317° Northwest 218 251 3,900 -2,040 Descending FlightAware ADS-B
03:23AM 47.2903 -122.2970 316° Northwest 214 246 3,600 -2,040 Descending FlightAware ADS-B
03:23AM 47.2932 -122.3010 317° Northwest 212 244 3,500 -1,500 Descending FlightAware ADS-B
03:23AM 47.2965 -122.3040 328° Northwest 210 242 3,400 -2,280 Descending FlightAware ADS-B
03:24AM 47.2997 -122.3060 337° Northwest 207 238 3,200 -2,580 Descending FlightAware ADS-B
03:24AM 47.3025 -122.3070 346° North 206 237 3,100 -2,040 Descending FlightAware ADS-B
03:24AM 47.3059 -122.3080 349° North 202 232 3,000 -1,740 Descending FlightAware ADS-B
03:24AM 47.3089 -122.3090 347° North 199 229 2,900 -2,040 Descending FlightAware ADS-B
03:24AM 47.3168 -122.3090 360° North 194 223 2,600 -1,500 Descending FlightAware ADS-B
03:24AM 47.3233 -122.3090 360° North 190 219 2,500 -1,440 Descending FlightAware ADS-B
03:24AM 47.3283 -122.3090 360° North 185 213 2,300 -1,200 Descending FlightAware ADS-B
03:24AM 47.3365 -122.3090 360° North 176 203 2,200 -720 Descending FlightAware ADS-B
03:24AM 47.3424 -122.3090 360° North 173 199 2,100 -900 Descending FlightAware ADS-B
03:25AM 47.3526 -122.3090 360° North 167 192 1,900 -1,200 Descending FlightAware ADS-B
03:25AM 47.3584 -122.3090 360° North 158 182 1,700 -840 Descending FlightAware ADS-B
03:25AM 47.3640 -122.3090 360° North 149 171 1,700 -480 Level FlightAware ADS-B
03:25AM 47.3676 -122.3090 360° North 143 165 1,600 -960 Descending FlightAware ADS-B
03:25AM 47.3723 -122.3090 360° North 133 153 1,500 -600 Descending FlightAware ADS-B
03:25AM 47.3742 -122.3090 360° North 131 151 1,500 -1,380 Level FlightAware ADS-B
03:25AM 47.3778 -122.3090 360° North 129 148 1,300 -1,020 Descending FlightAware ADS-B
03:25AM 47.3845 -122.3080 North 125 144 1,200 -600 Descending FlightAware ADS-B
03:26AM 47.3896 -122.3080 360° North 125 144 1,100 -480 Descending FlightAware ADS-B
03:26AM 47.3924 -122.3090 346° North 125 144 1,100 -420 Level FlightAware ADS-B
03:26AM 47.3993 -122.3080 North 128 147 1,000 -660 Descending FlightAware ADS-B
03:26AM 47.4036 -122.3080 360° North 131 151 900 -840 Descending FlightAware ADS-B
03:26AM 47.4084 -122.3080 360° North 132 152 800 -720 Descending FlightAware ADS-B
03:26AM 47.4135 -122.3080 360° North 137 158 700 -660 Descending FlightAware ADS-B
03:26AM 47.4206 -122.3080 360° North 140 161 600 -180 Descending FlightAware ADS-B
03:27AM 47.4340 -122.3090 357° North 140 161 600 -180 Level FlightAware
03:28AM 47.4581 -122.3089 357° North 137 158 400 -360 Descending Seattle Center